Time;durP1;ratioP1;P1;durP2;ratioP2;P2;SDS_P1;SDS_P2;PMS_P1;PMS_P2;Temp;Humidity;BMP_temperature;BMP_pressure;BME280_temperature;BME280_humidity;BME280_pressure;Samples;Min_cycle;Max_cycle;Signal;HPM_P1;HPM_P2
2021/05/23 00:01:04;;;;;;;17.40;6.50;;;;;;;;;;5018736;28;20219;-68
2021/05/23 00:03:29;;;;;;;19.48;9.20;;;;;;;;;;5025895;28;20642;-69
2021/05/23 00:05:55;;;;;;;14.40;5.97;;;;;;;;;;5024353;28;20205;-68
2021/05/23 00:08:21;;;;;;;11.48;5.97;;;;;;;;;;5032069;28;20182;-68
2021/05/23 00:10:51;;;;;;;19.88;6.50;;;;;;;;;;5026979;28;20657;-68
2021/05/23 00:13:19;;;;;;;13.95;6.32;;;;;;;;;;5033938;28;20260;-68
2021/05/23 00:15:55;;;;;;;20.08;6.93;;;;;;;;;;5034932;28;20200;-68
2021/05/23 00:18:22;;;;;;;15.48;6.22;;;;;;;;;;5030772;28;20174;-68
2021/05/23 00:20:48;;;;;;;17.25;6.53;;;;;;;;;;5032807;28;20228;-68
2021/05/23 00:23:14;;;;;;;13.50;5.82;;;;;;;;;;5023445;28;20221;-68
2021/05/23 00:25:40;;;;;;;17.70;6.25;;;;;;;;;;5028220;28;20218;-68
2021/05/23 00:28:06;;;;;;;16.48;6.25;;;;;;;;;;5017974;28;20219;-68
2021/05/23 00:30:31;;;;;;;17.98;6.68;;;;;;;;;;5029566;28;20550;-68
2021/05/23 00:32:57;;;;;;;15.52;5.47;;;;;;;;;;5021311;28;20193;-69
2021/05/23 00:35:23;;;;;;;17.17;6.25;;;;;;;;;;5025700;28;20188;-68
2021/05/23 00:37:49;;;;;;;17.45;6.63;;;;;;;;;;5021046;28;20193;-68
2021/05/23 00:40:14;;;;;;;15.30;7.10;;;;;;;;;;5027836;28;20217;-68
2021/05/23 00:42:40;;;;;;;18.30;6.82;;;;;;;;;;5023957;28;20515;-68
2021/05/23 00:45:08;;;;;;;14.00;5.78;;;;;;;;;;5028180;28;20225;-68
2021/05/23 00:47:34;;;;;;;16.73;6.28;;;;;;;;;;5022946;28;20285;-68
2021/05/23 00:49:59;;;;;;;22.02;6.88;;;;;;;;;;5027645;28;20546;-68
2021/05/23 00:52:25;;;;;;;18.65;7.10;;;;;;;;;;5029212;28;20264;-68
2021/05/23 00:54:50;;;;;;;17.17;7.10;;;;;;;;;;5024386;28;20641;-68
2021/05/23 00:57:16;;;;;;;15.80;6.60;;;;;;;;;;5030882;28;20343;-68
2021/05/23 00:59:42;;;;;;;17.95;7.93;;;;;;;;;;5020384;28;20202;-68
2021/05/23 01:02:07;;;;;;;15.65;6.60;;;;;;;;;;5029353;28;20233;-68
2021/05/23 01:04:34;;;;;;;15.43;6.40;;;;;;;;;;5020194;28;20192;-68
2021/05/23 01:06:59;;;;;;;18.77;7.13;;;;;;;;;;5031173;28;21337;-68
2021/05/23 01:09:25;;;;;;;21.10;7.10;;;;;;;;;;5019384;28;20289;-68
2021/05/23 01:11:50;;;;;;;22.08;7.32;;;;;;;;;;5031062;28;20213;-68
2021/05/23 01:14:34;;;;;;;15.70;6.28;;;;;;;;;;5022345;28;20198;-68
2021/05/23 01:16:59;;;;;;;15.90;6.38;;;;;;;;;;5029329;28;20178;-69
2021/05/23 01:19:44;;;;;;;17.58;6.55;;;;;;;;;;5019310;28;20520;-68
2021/05/23 01:22:34;;;;;;;18.15;6.93;;;;;;;;;;5027487;28;20265;-68
2021/05/23 01:25:12;;;;;;;15.98;7.35;;;;;;;;;;5017783;28;20284;-68
2021/05/23 01:27:45;;;;;;;18.95;7.32;;;;;;;;;;5030026;28;20182;-68
2021/05/23 01:30:13;;;;;;;17.73;7.57;;;;;;;;;;5019920;28;21340;-68
2021/05/23 01:32:42;;;;;;;19.48;7.47;;;;;;;;;;5028123;28;20184;-68
2021/05/23 01:35:16;;;;;;;12.23;6.72;;;;;;;;;;5023134;28;20657;-68
2021/05/23 01:37:41;;;;;;;20.35;7.93;;;;;;;;;;5028164;28;20198;-68
2021/05/23 01:40:08;;;;;;;22.05;8.07;;;;;;;;;;5027936;28;20286;-68
2021/05/23 01:42:34;;;;;;;20.45;7.85;;;;;;;;;;5022980;28;20196;-68
2021/05/23 01:45:00;;;;;;;14.80;7.32;;;;;;;;;;5029169;28;20212;-68
2021/05/23 01:47:25;;;;;;;19.25;9.05;;;;;;;;;;5020564;28;20204;-68
2021/05/23 01:49:51;;;;;;;20.33;8.48;;;;;;;;;;5026966;28;20698;-68
2021/05/23 01:52:16;;;;;;;12.70;7.30;;;;;;;;;;5021932;28;20810;-68
2021/05/23 01:54:42;;;;;;;20.20;8.90;;;;;;;;;;5029825;28;20252;-68
2021/05/23 01:57:08;;;;;;;18.75;8.43;;;;;;;;;;5021612;28;20194;-68
2021/05/23 01:59:33;;;;;;;24.67;9.15;;;;;;;;;;5028199;28;20681;-69
2021/05/23 02:01:58;;;;;;;19.60;9.18;;;;;;;;;;5023649;28;20230;-69
2021/05/23 02:04:24;;;;;;;21.20;9.82;;;;;;;;;;5030459;28;20626;-69
2021/05/23 02:06:50;;;;;;;20.92;9.70;;;;;;;;;;5020773;28;20479;-69
2021/05/23 02:09:16;;;;;;;24.67;10.77;;;;;;;;;;5030388;28;20511;-69
2021/05/23 02:11:41;;;;;;;22.23;9.77;;;;;;;;;;5029736;28;20186;-69
2021/05/23 02:14:07;;;;;;;28.58;10.30;;;;;;;;;;5018330;28;20175;-68
2021/05/23 02:16:33;;;;;;;26.00;10.20;;;;;;;;;;5028849;28;20240;-69
2021/05/23 02:18:59;;;;;;;25.75;10.05;;;;;;;;;;5021476;28;22758;-69
2021/05/23 02:21:25;;;;;;;23.10;9.63;;;;;;;;;;5025396;28;20216;-69
2021/05/23 02:23:55;;;;;;;18.83;9.90;;;;;;;;;;5021935;28;20248;-69
2021/05/23 02:26:22;;;;;;;25.92;10.57;;;;;;;;;;5028137;28;20654;-69
2021/05/23 02:28:48;;;;;;;27.85;10.50;;;;;;;;;;5018431;28;20181;-69
2021/05/23 02:31:13;;;;;;;24.95;10.15;;;;;;;;;;5025406;28;20251;-69
2021/05/23 02:33:39;;;;;;;26.65;11.25;;;;;;;;;;5019001;28;21546;-68
2021/05/23 02:36:05;;;;;;;22.88;10.52;;;;;;;;;;5022787;28;20846;-68
2021/05/23 02:38:30;;;;;;;29.33;10.32;;;;;;;;;;5017402;28;20193;-68
2021/05/23 02:40:56;;;;;;;20.75;10.23;;;;;;;;;;5026887;28;20190;-69
2021/05/23 02:43:22;;;;;;;28.85;10.13;;;;;;;;;;5027543;28;20372;-68
2021/05/23 02:45:48;;;;;;;21.23;10.07;;;;;;;;;;5016704;28;20177;-69
2021/05/23 02:48:14;;;;;;;22.00;9.68;;;;;;;;;;5028645;28;21002;-68
2021/05/23 02:50:43;;;;;;;23.92;9.98;;;;;;;;;;5018451;28;20828;-68
2021/05/23 02:53:09;;;;;;;21.98;9.85;;;;;;;;;;5026277;28;20200;-68
2021/05/23 02:55:36;;;;;;;23.58;10.35;;;;;;;;;;5018578;28;20201;-69
2021/05/23 02:58:02;;;;;;;26.80;10.60;;;;;;;;;;5026668;28;20259;-68
2021/05/23 03:00:28;;;;;;;24.17;10.23;;;;;;;;;;5017978;28;20309;-68
2021/05/23 03:02:53;;;;;;;24.30;10.38;;;;;;;;;;5026358;28;20292;-68
2021/05/23 03:05:21;;;;;;;21.73;10.32;;;;;;;;;;5018473;28;20206;-69
2021/05/23 03:07:50;;;;;;;24.73;9.18;;;;;;;;;;5028338;28;20251;-69
2021/05/23 03:10:19;;;;;;;24.88;9.52;;;;;;;;;;5015478;28;20727;-66
2021/05/23 03:12:45;;;;;;;23.35;9.57;;;;;;;;;;5025113;28;20201;-68
2021/05/23 03:15:14;;;;;;;24.38;8.98;;;;;;;;;;5024965;28;20571;-68
2021/05/23 03:17:40;;;;;;;26.88;9.45;;;;;;;;;;5016704;28;21427;-68
2021/05/23 03:20:07;;;;;;;20.13;8.02;;;;;;;;;;5024672;28;20244;-68
2021/05/23 03:22:34;;;;;;;32.25;10.13;;;;;;;;;;5018554;28;20189;-67
2021/05/23 03:24:59;;;;;;;26.00;10.10;;;;;;;;;;5028007;28;20188;-68
2021/05/23 03:27:24;;;;;;;20.55;8.63;;;;;;;;;;5017856;28;20638;-69
2021/05/23 03:29:50;;;;;;;22.50;9.32;;;;;;;;;;5024688;28;21694;-67
2021/05/23 03:32:15;;;;;;;28.08;9.98;;;;;;;;;;5018705;28;20602;-68
2021/05/23 03:34:40;;;;;;;19.10;8.63;;;;;;;;;;5025635;28;20610;-68
2021/05/23 03:37:06;;;;;;;21.90;9.30;;;;;;;;;;5017344;28;20190;-68
2021/05/23 03:39:31;;;;;;;25.52;9.63;;;;;;;;;;5025319;28;20198;-68
2021/05/23 03:41:56;;;;;;;24.17;10.00;;;;;;;;;;5018893;28;20273;-67
2021/05/23 03:44:22;;;;;;;19.65;9.52;;;;;;;;;;5026442;28;20189;-68
2021/05/23 03:46:47;;;;;;;20.48;9.70;;;;;;;;;;5028367;28;20193;-67
2021/05/23 03:49:12;;;;;;;24.10;10.20;;;;;;;;;;5015460;28;20238;-68
2021/05/23 03:51:38;;;;;;;26.55;10.65;;;;;;;;;;5028819;28;20222;-68
2021/05/23 03:54:03;;;;;;;24.25;10.93;;;;;;;;;;5015701;28;20192;-69
2021/05/23 03:56:29;;;;;;;25.48;10.65;;;;;;;;;;5025470;28;20194;-68
2021/05/23 03:58:54;;;;;;;24.77;10.38;;;;;;;;;;5014589;28;20213;-69
2021/05/23 04:01:20;;;;;;;27.30;10.80;;;;;;;;;;5022652;28;20231;-69
2021/05/23 04:03:45;;;;;;;22.77;11.27;;;;;;;;;;5017977;28;20308;-68
2021/05/23 04:06:10;;;;;;;27.15;11.15;;;;;;;;;;5026429;28;20265;-69
2021/05/23 04:08:36;;;;;;;24.63;10.07;;;;;;;;;;5017389;28;20198;-69
2021/05/23 04:11:15;;;;;;;25.83;10.32;;;;;;;;;;5027637;28;20220;-68
2021/05/23 04:13:41;;;;;;;30.55;10.45;;;;;;;;;;5019466;28;21435;-68
2021/05/23 04:16:10;;;;;;;27.27;11.18;;;;;;;;;;5026109;28;20339;-69
2021/05/23 04:18:35;;;;;;;24.00;10.27;;;;;;;;;;5024851;28;20669;-68
2021/05/23 04:21:00;;;;;;;24.48;10.05;;;;;;;;;;5015143;28;20190;-69
2021/05/23 04:23:26;;;;;;;22.27;10.02;;;;;;;;;;5023747;28;20190;-69
2021/05/23 04:25:51;;;;;;;22.65;9.40;;;;;;;;;;5017039;28;20219;-68
2021/05/23 04:28:18;;;;;;;21.45;9.40;;;;;;;;;;5025321;28;20231;-69
2021/05/23 04:30:43;;;;;;;19.27;8.50;;;;;;;;;;5017557;28;20536;-69
2021/05/23 04:33:09;;;;;;;34.78;9.82;;;;;;;;;;5024968;28;20186;-69
2021/05/23 04:35:35;;;;;;;17.30;9.23;;;;;;;;;;5017628;28;21426;-69
2021/05/23 04:38:01;;;;;;;19.33;8.23;;;;;;;;;;5026666;28;20189;-68
2021/05/23 04:40:27;;;;;;;24.55;8.50;;;;;;;;;;5020725;28;20216;-68
2021/05/23 04:42:53;;;;;;;28.90;9.50;;;;;;;;;;5023827;28;20518;-68
2021/05/23 04:45:18;;;;;;;17.67;9.23;;;;;;;;;;5015747;28;21310;-68
2021/05/23 04:47:44;;;;;;;20.70;8.80;;;;;;;;;;5025735;28;20775;-68
2021/05/23 04:50:10;;;;;;;16.52;8.10;;;;;;;;;;5026105;28;20173;-68
2021/05/23 04:52:36;;;;;;;21.48;8.30;;;;;;;;;;5022557;28;20238;-68
2021/05/23 04:55:04;;;;;;;27.95;10.68;;;;;;;;;;5031875;28;20189;-68
2021/05/23 04:57:29;;;;;;;19.92;10.18;;;;;;;;;;5017314;28;20273;-68
2021/05/23 04:59:55;;;;;;;25.98;11.60;;;;;;;;;;5020424;28;20284;-68
2021/05/23 05:02:20;;;;;;;21.23;11.13;;;;;;;;;;5018357;28;21220;-68
2021/05/23 05:04:46;;;;;;;21.02;10.50;;;;;;;;;;5029401;28;20276;-68
2021/05/23 05:07:11;;;;;;;21.25;10.98;;;;;;;;;;5022248;28;20218;-67
2021/05/23 05:09:37;;;;;;;24.13;11.93;;;;;;;;;;5028728;28;20182;-68
2021/05/23 05:12:02;;;;;;;24.23;10.35;;;;;;;;;;5019537;28;25536;-68
2021/05/23 05:14:28;;;;;;;24.67;13.05;;;;;;;;;;5029516;28;20593;-68
2021/05/23 05:16:53;;;;;;;22.48;11.48;;;;;;;;;;5027921;28;20221;-68
2021/05/23 05:19:18;;;;;;;20.70;10.27;;;;;;;;;;5019030;28;20209;-68
2021/05/23 05:21:44;;;;;;;25.02;10.93;;;;;;;;;;5028446;28;20189;-68
2021/05/23 05:24:10;;;;;;;18.08;9.63;;;;;;;;;;5019242;28;20204;-68
2021/05/23 05:26:36;;;;;;;20.45;10.20;;;;;;;;;;5028895;28;20252;-68
2021/05/23 05:29:02;;;;;;;22.45;11.45;;;;;;;;;;5019663;28;20202;-68
2021/05/23 05:31:27;;;;;;;23.80;10.05;;;;;;;;;;4326994;28;10000749;-68
2021/05/23 05:33:52;;;;;;;23.77;10.63;;;;;;;;;;5014974;28;20717;-68
2021/05/23 05:36:18;;;;;;;19.25;8.95;;;;;;;;;;5022835;28;20186;-68
2021/05/23 05:38:43;;;;;;;17.70;7.65;;;;;;;;;;5014950;28;20197;-68
2021/05/23 05:41:10;;;;;;;20.67;7.47;;;;;;;;;;5021270;28;20198;-68
2021/05/23 05:43:35;;;;;;;14.27;6.80;;;;;;;;;;5013333;28;20182;-68
2021/05/23 05:46:00;;;;;;;16.25;7.30;;;;;;;;;;5025244;28;20186;-68
2021/05/23 05:48:26;;;;;;;16.50;7.82;;;;;;;;;;5021795;28;20259;-68
2021/05/23 05:50:54;;;;;;;19.90;8.27;;;;;;;;;;5015920;28;20296;-68
2021/05/23 05:53:20;;;;;;;20.77;7.85;;;;;;;;;;5020690;28;20210;-67
2021/05/23 05:55:45;;;;;;;14.40;7.85;;;;;;;;;;5013768;28;20205;-68
2021/05/23 05:58:11;;;;;;;11.10;6.15;;;;;;;;;;5022833;28;20200;-68
2021/05/23 06:00:36;;;;;;;17.30;6.85;;;;;;;;;;5014480;28;20696;-68
2021/05/23 06:03:02;;;;;;;13.80;7.10;;;;;;;;;;5019324;28;20220;-68
2021/05/23 06:05:28;;;;;;;16.55;6.85;;;;;;;;;;5020075;28;20228;-68
2021/05/23 06:07:53;;;;;;;17.50;7.22;;;;;;;;;;5020916;28;20682;-68
2021/05/23 06:10:19;;;;;;;15.13;7.25;;;;;;;;;;5016052;28;20194;-68
2021/05/23 06:12:44;;;;;;;15.35;7.10;;;;;;;;;;5021551;28;20217;-69
2021/05/23 06:15:10;;;;;;;17.02;6.80;;;;;;;;;;5019520;28;20654;-69
2021/05/23 06:17:36;;;;;;;15.57;7.38;;;;;;;;;;5022946;28;20201;-68
2021/05/23 06:20:03;;;;;;;13.32;7.57;;;;;;;;;;5020815;28;20878;-69
2021/05/23 06:22:28;;;;;;;14.52;8.05;;;;;;;;;;5011932;28;20216;-69
2021/05/23 06:24:53;;;;;;;17.75;7.47;;;;;;;;;;5021441;28;20185;-68
2021/05/23 06:27:19;;;;;;;14.18;6.72;;;;;;;;;;5013168;28;20224;-68
2021/05/23 06:29:45;;;;;;;17.63;8.32;;;;;;;;;;5024109;28;20183;-68
2021/05/23 06:32:11;;;;;;;19.50;8.73;;;;;;;;;;5013511;28;20280;-68
2021/05/23 06:34:37;;;;;;;17.23;8.02;;;;;;;;;;5022426;28;20267;-69
2021/05/23 06:37:02;;;;;;;16.92;8.30;;;;;;;;;;5014344;28;20713;-68
2021/05/23 06:39:28;;;;;;;21.83;9.38;;;;;;;;;;5020836;28;20244;-68
2021/05/23 06:41:53;;;;;;;17.20;9.52;;;;;;;;;;5015087;28;20189;-68
2021/05/23 06:44:19;;;;;;;22.08;9.35;;;;;;;;;;5019126;28;21319;-68
2021/05/23 06:46:44;;;;;;;22.42;10.25;;;;;;;;;;5021791;28;20194;-68
2021/05/23 06:49:10;;;;;;;25.48;9.30;;;;;;;;;;5012914;28;20220;-68
2021/05/23 06:51:36;;;;;;;17.33;8.93;;;;;;;;;;5017689;28;20210;-68
2021/05/23 06:54:01;;;;;;;21.83;9.43;;;;;;;;;;5011646;28;20190;-68
2021/05/23 06:56:26;;;;;;;18.75;10.20;;;;;;;;;;5019392;28;20209;-68
2021/05/23 06:58:52;;;;;;;19.30;10.20;;;;;;;;;;5011519;28;20217;-69
2021/05/23 07:01:17;;;;;;;13.90;9.43;;;;;;;;;;5021742;28;20231;-68
2021/05/23 07:03:42;;;;;;;23.23;12.25;;;;;;;;;;5012571;28;20676;-68
2021/05/23 07:06:08;;;;;;;20.90;12.75;;;;;;;;;;5019408;28;20224;-68
2021/05/23 07:08:33;;;;;;;25.73;13.60;;;;;;;;;;5013467;28;20203;-69
2021/05/23 07:10:59;;;;;;;24.13;13.88;;;;;;;;;;5019714;28;20543;-68
2021/05/23 07:13:26;;;;;;;23.15;13.43;;;;;;;;;;5014003;28;20189;-68
2021/05/23 07:15:52;;;;;;;23.23;11.77;;;;;;;;;;5021283;28;20201;-68
2021/05/23 07:18:17;;;;;;;21.55;14.38;;;;;;;;;;5019280;28;21028;-68
2021/05/23 07:20:42;;;;;;;22.92;13.68;;;;;;;;;;5012525;28;20224;-68
2021/05/23 07:23:08;;;;;;;24.83;16.05;;;;;;;;;;5023706;28;20186;-68
2021/05/23 07:25:33;;;;;;;25.83;17.48;;;;;;;;;;5012919;28;20622;-67
2021/05/23 07:27:59;;;;;;;22.38;16.27;;;;;;;;;;5021359;28;21349;-67
2021/05/23 07:30:25;;;;;;;23.85;17.42;;;;;;;;;;5012748;28;20638;-68
2021/05/23 07:32:50;;;;;;;21.88;16.70;;;;;;;;;;5021089;28;20210;-69
2021/05/23 07:35:16;;;;;;;21.90;15.93;;;;;;;;;;5016018;28;20260;-70
2021/05/23 07:37:41;;;;;;;20.13;16.30;;;;;;;;;;5019184;28;20282;-68
2021/05/23 07:40:07;;;;;;;18.20;14.82;;;;;;;;;;5014123;28;20236;-70
2021/05/23 07:42:32;;;;;;;22.40;16.33;;;;;;;;;;5022589;28;20273;-69
2021/05/23 07:44:58;;;;;;;21.05;16.33;;;;;;;;;;5016668;28;20645;-70
2021/05/23 07:47:23;;;;;;;22.05;15.43;;;;;;;;;;5021417;28;20699;-70
2021/05/23 07:49:48;;;;;;;18.27;12.70;;;;;;;;;;5020554;28;20645;-71
2021/05/23 07:52:14;;;;;;;21.27;15.05;;;;;;;;;;5011881;28;20194;-71
2021/05/23 07:54:41;;;;;;;16.95;12.45;;;;;;;;;;5020284;28;20189;-72
2021/05/23 07:57:07;;;;;;;17.52;13.07;;;;;;;;;;5014465;28;20617;-74
2021/05/23 07:59:32;;;;;;;14.70;10.50;;;;;;;;;;5020789;28;20247;-74
2021/05/23 08:01:58;;;;;;;13.68;9.60;;;;;;;;;;5013993;28;20300;-74
2021/05/23 08:04:23;;;;;;;13.18;9.30;;;;;;;;;;5022089;28;20722;-74
2021/05/23 08:06:49;;;;;;;15.73;11.55;;;;;;;;;;5014096;28;20232;-73
2021/05/23 08:09:14;;;;;;;19.20;12.52;;;;;;;;;;5021601;28;20347;-73
2021/05/23 08:11:43;;;;;;;17.02;12.27;;;;;;;;;;5013870;28;20225;-73
2021/05/23 08:14:08;;;;;;;17.50;12.60;;;;;;;;;;5021065;28;20184;-72
2021/05/23 08:16:34;;;;;;;18.27;13.73;;;;;;;;;;5019883;28;20677;-72
2021/05/23 08:19:00;;;;;;;18.33;12.90;;;;;;;;;;5012709;28;20297;-72
2021/05/23 08:21:26;;;;;;;16.92;11.82;;;;;;;;;;5021981;28;20194;-72
2021/05/23 08:23:51;;;;;;;13.82;10.30;;;;;;;;;;5013703;28;20185;-72
2021/05/23 08:26:17;;;;;;;14.65;10.30;;;;;;;;;;5024364;28;20197;-72
2021/05/23 08:28:42;;;;;;;15.63;10.40;;;;;;;;;;5017594;28;20298;-71
2021/05/23 08:31:07;;;;;;;18.15;11.85;;;;;;;;;;5021480;28;20681;-70
2021/05/23 08:33:33;;;;;;;16.75;12.95;;;;;;;;;;5016852;28;20182;-71
2021/05/23 08:35:59;;;;;;;17.10;13.95;;;;;;;;;;5022440;28;20217;-71
2021/05/23 08:38:24;;;;;;;19.00;13.73;;;;;;;;;;5017929;28;20196;-71
2021/05/23 08:40:49;;;;;;;19.63;14.77;;;;;;;;;;5023551;28;20201;-71
2021/05/23 08:43:16;;;;;;;23.17;15.73;;;;;;;;;;5015585;28;20189;-71
2021/05/23 08:45:42;;;;;;;22.90;14.90;;;;;;;;;;5025862;28;20193;-71
2021/05/23 08:48:08;;;;;;;22.20;14.80;;;;;;;;;;5022988;28;20238;-72
2021/05/23 08:50:34;;;;;;;24.08;14.52;;;;;;;;;;5015026;28;20178;-71
2021/05/23 08:53:02;;;;;;;27.30;18.30;;;;;;;;;;5025514;28;20181;-71
2021/05/23 08:55:29;;;;;;;27.48;19.23;;;;;;;;;;5013866;28;20315;-71
2021/05/23 08:57:57;;;;;;;26.80;17.88;;;;;;;;;;5021746;28;20197;-67
2021/05/23 09:00:23;;;;;;;28.35;18.63;;;;;;;;;;5013888;28;20698;-67
2021/05/23 09:02:59;;;;;;;30.45;18.70;;;;;;;;;;5026273;28;20245;-70
2021/05/23 09:05:35;;;;;;;26.02;16.98;;;;;;;;;;5012521;28;20198;-70
2021/05/23 09:08:08;;;;;;;29.98;17.45;;;;;;;;;;5024105;28;20251;-70
2021/05/23 09:10:36;;;;;;;26.00;14.50;;;;;;;;;;5014730;28;20544;-70
2021/05/23 09:13:02;;;;;;;19.10;13.55;;;;;;;;;;5025461;28;20461;-70
2021/05/23 09:15:28;;;;;;;23.42;12.55;;;;;;;;;;5015655;28;20564;-67
2021/05/23 09:18:11;;;;;;;22.60;12.35;;;;;;;;;;5024714;28;20208;-71
2021/05/23 09:20:39;;;;;;;17.55;11.98;;;;;;;;;;5016891;28;21333;-73
2021/05/23 09:23:21;;;;;;;21.23;11.40;;;;;;;;;;5024008;28;20242;-70
2021/05/23 09:25:48;;;;;;;20.80;12.50;;;;;;;;;;5017879;28;20217;-69
2021/05/23 09:28:13;;;;;;;21.45;11.77;;;;;;;;;;5025310;28;20668;-68
2021/05/23 09:30:41;;;;;;;25.45;12.50;;;;;;;;;;5019596;28;20185;-70
2021/05/23 09:33:08;;;;;;;22.27;13.02;;;;;;;;;;5028398;28;20559;-71
2021/05/23 09:35:41;;;;;;;20.75;12.55;;;;;;;;;;5027692;28;20174;-70
2021/05/23 09:38:07;;;;;;;20.33;13.63;;;;;;;;;;5018670;28;21540;-69
2021/05/23 09:40:36;;;;;;;21.60;14.70;;;;;;;;;;5029618;28;20277;-71
2021/05/23 09:43:03;;;;;;;22.17;15.43;;;;;;;;;;5020151;28;20319;-71
2021/05/23 09:45:47;;;;;;;23.40;15.40;;;;;;;;;;5028101;28;20184;-71
2021/05/23 09:48:24;;;;;;;19.45;13.43;;;;;;;;;;5019165;28;20221;-72
2021/05/23 09:50:51;;;;;;;20.45;12.93;;;;;;;;;;5028968;28;20664;-68
2021/05/23 09:53:27;;;;;;;21.63;12.15;;;;;;;;;;5019676;28;20560;-69
2021/05/23 09:55:56;;;;;;;16.70;9.70;;;;;;;;;;5028590;28;20178;-72
2021/05/23 09:58:39;;;;;;;14.90;9.73;;;;;;;;;;5018581;28;20201;-68
2021/05/23 10:01:06;;;;;;;14.95;9.20;;;;;;;;;;5026692;28;20217;-70
2021/05/23 10:03:34;;;;;;;12.52;8.63;;;;;;;;;;5019425;28;20217;-68
2021/05/23 10:06:00;;;;;;;16.85;9.60;;;;;;;;;;5028916;28;20182;-70
2021/05/23 10:08:27;;;;;;;15.50;9.00;;;;;;;;;;5017688;28;20182;-70
2021/05/23 10:10:53;;;;;;;13.55;7.95;;;;;;;;;;5029284;28;20252;-69
2021/05/23 10:13:21;;;;;;;13.13;8.88;;;;;;;;;;5018139;28;20619;-68
2021/05/23 10:15:47;;;;;;;13.65;8.52;;;;;;;;;;5029467;28;20190;-70
2021/05/23 10:18:12;;;;;;;13.80;7.90;;;;;;;;;;5017880;28;20193;-69
2021/05/23 10:20:39;;;;;;;18.17;7.35;;;;;;;;;;5029856;28;20262;-68
2021/05/23 10:23:15;;;;;;;17.27;7.60;;;;;;;;;;5027872;28;20190;-71
2021/05/23 10:25:47;;;;;;;11.43;7.28;;;;;;;;;;5023730;28;20338;-66
2021/05/23 10:28:14;;;;;;;13.60;6.82;;;;;;;;;;5026279;28;20182;-69
2021/05/23 10:30:54;;;;;;;11.95;7.22;;;;;;;;;;5017979;28;20177;-68
2021/05/23 10:33:21;;;;;;;14.85;6.95;;;;;;;;;;5023841;28;20262;-69
2021/05/23 10:35:49;;;;;;;9.25;6.70;;;;;;;;;;5017835;28;20622;-68
2021/05/23 10:38:19;;;;;;;12.48;6.60;;;;;;;;;;5024894;28;20193;-69
2021/05/23 10:40:59;;;;;;;15.13;7.32;;;;;;;;;;5018953;28;20263;-69
2021/05/23 10:43:25;;;;;;;14.65;6.93;;;;;;;;;;5025695;28;20600;-68
2021/05/23 10:46:10;;;;;;;7.47;4.95;;;;;;;;;;5019012;28;20216;-69
2021/05/23 10:48:37;;;;;;;9.75;4.55;;;;;;;;;;5028016;28;20260;-69
2021/05/23 10:51:15;;;;;;;11.48;4.20;;;;;;;;;;5020322;28;20197;-69
2021/05/23 10:53:41;;;;;;;6.97;3.67;;;;;;;;;;5030110;28;20780;-68
2021/05/23 10:56:18;;;;;;;10.05;3.65;;;;;;;;;;5018495;28;20201;-69
2021/05/23 10:58:53;;;;;;;6.60;3.65;;;;;;;;;;5027079;28;21062;-70
2021/05/23 11:01:35;;;;;;;13.80;4.40;;;;;;;;;;5020147;28;20213;-70
2021/05/23 11:04:39;;;;;;;9.32;3.15;;;;;;;;;;5026021;28;20535;-69
2021/05/23 11:07:09;;;;;;;6.97;2.60;;;;;;;;;;5016331;28;20268;-69
2021/05/23 11:09:35;;;;;;;6.90;2.80;;;;;;;;;;5024039;28;20229;-67
2021/05/23 11:12:09;;;;;;;6.45;2.53;;;;;;;;;;5017193;28;20353;-68
2021/05/23 11:14:34;;;;;;;7.93;2.10;;;;;;;;;;5024412;28;20194;-67
2021/05/23 11:17:00;;;;;;;5.90;1.95;;;;;;;;;;5013305;28;20201;-67
2021/05/23 11:19:30;;;;;;;6.72;1.77;;;;;;;;;;5023791;28;20225;-69
2021/05/23 11:21:57;;;;;;;5.47;1.73;;;;;;;;;;5018251;28;20194;-68
2021/05/23 11:24:31;;;;;;;5.25;1.98;;;;;;;;;;5023678;28;20193;-68
2021/05/23 11:26:56;;;;;;;7.25;2.10;;;;;;;;;;5017391;28;20216;-70
2021/05/23 11:29:25;;;;;;;5.95;1.80;;;;;;;;;;5024259;28;20256;-67
2021/05/23 11:31:51;;;;;;;7.43;1.90;;;;;;;;;;5024308;28;20324;-67
2021/05/23 11:34:20;;;;;;;6.68;1.90;;;;;;;;;;5013688;28;20331;-67
2021/05/23 11:36:46;;;;;;;6.70;2.03;;;;;;;;;;5023517;28;20190;-68
2021/05/23 11:39:14;;;;;;;6.28;2.15;;;;;;;;;;5016390;28;20217;-69
2021/05/23 11:41:41;;;;;;;7.53;2.63;;;;;;;;;;5026184;28;20220;-68
2021/05/23 11:44:09;;;;;;;5.55;1.88;;;;;;;;;;5016915;28;20190;-68
2021/05/23 11:46:35;;;;;;;7.88;3.13;;;;;;;;;;5025622;28;20224;-69
2021/05/23 11:49:01;;;;;;;8.48;2.40;;;;;;;;;;5010745;28;20755;-68
2021/05/23 11:51:31;;;;;;;9.40;2.20;;;;;;;;;;5026379;28;20909;-69
2021/05/23 11:53:59;;;;;;;6.88;2.20;;;;;;;;;;5014855;28;20207;-68
2021/05/23 11:56:29;;;;;;;5.38;1.88;;;;;;;;;;5022303;28;20200;-67
2021/05/23 11:59:00;;;;;;;3.67;1.90;;;;;;;;;;5014784;28;20593;-68
2021/05/23 12:01:29;;;;;;;4.22;1.60;;;;;;;;;;5023818;28;20314;-68
2021/05/23 12:03:58;;;;;;;5.03;1.52;;;;;;;;;;5018432;28;20532;-67
2021/05/23 12:06:23;;;;;;;5.72;1.55;;;;;;;;;;5022880;28;20703;-69
2021/05/23 12:08:49;;;;;;;4.05;1.58;;;;;;;;;;5026813;28;20197;-68
2021/05/23 12:11:14;;;;;;;4.93;1.30;;;;;;;;;;5013853;28;20190;-69
2021/05/23 12:13:45;;;;;;;5.35;1.50;;;;;;;;;;5016595;28;20182;-67
2021/05/23 12:16:19;;;;;;;4.47;1.92;;;;;;;;;;5015973;28;20212;-68
2021/05/23 12:18:53;;;;;;;4.97;2.25;;;;;;;;;;5024622;28;24094;-68
2021/05/23 12:21:24;;;;;;;6.40;2.17;;;;;;;;;;5017252;28;20192;-68
2021/05/23 12:23:53;;;;;;;7.00;2.20;;;;;;;;;;5021681;28;20182;-69
2021/05/23 12:26:20;;;;;;;5.15;2.10;;;;;;;;;;5012261;28;20197;-68
2021/05/23 12:28:48;;;;;;;10.00;2.30;;;;;;;;;;5022275;28;20173;-70
2021/05/23 12:31:17;;;;;;;5.18;2.28;;;;;;;;;;5013510;28;20223;-69
2021/05/23 12:33:57;;;;;;;8.38;2.55;;;;;;;;;;5023348;28;20182;-69
2021/05/23 12:36:27;;;;;;;6.68;2.20;;;;;;;;;;5018620;28;20269;-69
2021/05/23 12:38:54;;;;;;;6.38;2.20;;;;;;;;;;5025936;28;20570;-69
2021/05/23 12:41:20;;;;;;;7.30;2.55;;;;;;;;;;5014439;28;20275;-70
2021/05/23 12:43:45;;;;;;;10.48;3.05;;;;;;;;;;5027804;28;20558;-67
2021/05/23 12:46:12;;;;;;;8.60;2.05;;;;;;;;;;5014595;28;20587;-67
2021/05/23 12:48:45;;;;;;;6.55;1.73;;;;;;;;;;5027276;28;20274;-67
2021/05/23 12:51:23;;;;;;;9.23;1.98;;;;;;;;;;5025122;28;20194;-68
2021/05/23 12:53:53;;;;;;;5.45;1.50;;;;;;;;;;5022839;28;20267;-69
2021/05/23 12:56:24;;;;;;;5.90;1.83;;;;;;;;;;5025236;28;20213;-65
2021/05/23 12:58:54;;;;;;;4.38;1.60;;;;;;;;;;5018004;28;20657;-67
2021/05/23 13:01:24;;;;;;;5.88;2.05;;;;;;;;;;5023019;28;20274;-67
2021/05/23 13:03:54;;;;;;;4.95;1.98;;;;;;;;;;5017668;28;20190;-69
2021/05/23 13:06:21;;;;;;;6.78;1.83;;;;;;;;;;5022960;28;20546;-68
2021/05/23 13:08:58;;;;;;;7.85;1.77;;;;;;;;;;5018031;28;20201;-67
2021/05/23 13:11:24;;;;;;;5.43;1.80;;;;;;;;;;5026667;28;20193;-68
2021/05/23 13:13:49;;;;;;;5.13;1.60;;;;;;;;;;5020618;28;20613;-67
2021/05/23 13:16:15;;;;;;;6.95;1.95;;;;;;;;;;5028244;28;20194;-66
2021/05/23 13:18:45;;;;;;;6.88;2.08;;;;;;;;;;5020967;28;20254;-67
2021/05/23 13:21:16;;;;;;;3.70;1.80;;;;;;;;;;5029240;28;20197;-68
2021/05/23 13:23:45;;;;;;;5.63;1.92;;;;;;;;;;5021720;28;20209;-67
2021/05/23 13:26:22;;;;;;;8.68;1.70;;;;;;;;;;5027239;28;20615;-69
2021/05/23 13:28:48;;;;;;;4.57;1.60;;;;;;;;;;5019514;28;20712;-69
2021/05/23 13:31:14;;;;;;;3.30;1.40;;;;;;;;;;5027431;28;20938;-67
2021/05/23 13:33:41;;;;;;;4.22;1.90;;;;;;;;;;5020757;28;20277;-67
2021/05/23 13:36:14;;;;;;;5.97;2.13;;;;;;;;;;5027932;28;21669;-67
2021/05/23 13:38:41;;;;;;;4.00;1.85;;;;;;;;;;5031376;28;20222;-69
2021/05/23 13:41:07;;;;;;;5.40;1.70;;;;;;;;;;5019863;28;20209;-68
2021/05/23 13:43:33;;;;;;;8.35;2.22;;;;;;;;;;5027896;28;20276;-69
2021/05/23 13:45:59;;;;;;;5.82;1.85;;;;;;;;;;5016510;28;20563;-70
2021/05/23 13:48:25;;;;;;;6.78;1.48;;;;;;;;;;5026835;28;20229;-70
2021/05/23 13:50:50;;;;;;;4.63;1.60;;;;;;;;;;5023664;28;20201;-68
2021/05/23 13:53:16;;;;;;;5.93;1.80;;;;;;;;;;5028283;28;20190;-69
2021/05/23 13:55:42;;;;;;;5.88;1.95;;;;;;;;;;5018954;28;20231;-70
2021/05/23 13:58:08;;;;;;;6.20;1.58;;;;;;;;;;5028541;28;20649;-68
2021/05/23 14:00:34;;;;;;;4.53;1.50;;;;;;;;;;5021475;28;20205;-68
2021/05/23 14:03:20;;;;;;;5.65;1.60;;;;;;;;;;5029322;28;20221;-67
2021/05/23 14:05:50;;;;;;;3.63;1.50;;;;;;;;;;5021733;28;20192;-68
2021/05/23 14:08:16;;;;;;;7.15;2.00;;;;;;;;;;5030371;28;20665;-67
2021/05/23 14:10:42;;;;;;;4.25;1.80;;;;;;;;;;5022096;28;20671;-70
2021/05/23 14:13:09;;;;;;;7.63;1.90;;;;;;;;;;5027970;28;23052;-67
2021/05/23 14:15:36;;;;;;;4.43;1.42;;;;;;;;;;5029600;28;20652;-68
2021/05/23 14:18:06;;;;;;;4.55;1.60;;;;;;;;;;5019029;28;20632;-68
2021/05/23 14:20:32;;;;;;;4.78;1.67;;;;;;;;;;5029000;28;20568;-66
2021/05/23 14:22:57;;;;;;;5.43;1.63;;;;;;;;;;5021465;28;20197;-69
2021/05/23 14:25:24;;;;;;;3.75;1.25;;;;;;;;;;5030628;28;20182;-67
2021/05/23 14:27:49;;;;;;;8.35;1.52;;;;;;;;;;5018323;28;20193;-69
2021/05/23 14:30:16;;;;;;;4.40;1.88;;;;;;;;;;5027520;28;20292;-68